メインページ
METAR-TAF:

METAR-TAF

空港 :

コペンハーゲン, デンマーク

コペンハーゲン空港

緯度: 55-37N, 経度: 012-39E, 海抜: 5m

現時点の気象観測

当レポートは20分前の14:20(UTC)に作成
北東の風 4kt、から東/北東の間で変化する
気温 0°C
湿度 100%
気圧 1016 hPa
視程: 4000m
高度200ftの雲はほとんどない
高度300ftの曇り

METAR: EKCH 211420Z 04004KT 010V070 4000 BR FEW002 OVC003 00/M00 Q1016 TEMPO 0300 FG

時間: 15:40 (14:40 UTC)

予報

当レポートは1時間37分前の13:03(UTC)に作成
予報は21日の 13時(UTC)から 22日の 12時(UTC)まで有効
東/南東の風 5kt
視程: 8000m
高度800ftの雲は散在している
21日の 13時(UTC)から 21日の 18時(UTC)まで一時的に
視程: 0300m
高度200ftの千切れ雲あり
21日の 18時(UTC)から 21日の 21時(UTC)まで徐々に
視程: 3000m
高度500ftの千切れ雲あり
21日の 21時(UTC)から 21日の 24時(UTC)まで徐々に
の風 12kt
視程10km以上
高度2000ftの雲は散在している
22日の 00時(UTC)から 22日の 12時(UTC)まで一時的に
高度1200ftの千切れ雲あり

TAF: EKCH 211303Z 2113/2212 12005KT 8000 SCT008 TEMPO 2113/2118 0300 FG BKN002 BECMG 2118/2121 3000 BR BKN005 BECMG 2121/2124 17012KT 9999 NSW SCT020 TEMPO 2200/2212 BKN012

4,000以上の空港の気象観測と天気予報(METAR報とTAF報)

利用可能な観測所は地図上に黄色い丸と赤い丸で示す。

丸の上にカーソルを重ねると観測所名を参照できる。

次にクリックすると気象観測と天気予報を参照できる。

マップの切り替え:黒色「×」印の緑ボタンをクリックして拡大、「-」印の緑ボタンをクリックして縮小、緑色の三角印をクリックして隣りの地図に切り替え


METAR-TAF: